Tasman — ZDKI2 — position and weather

sailwx.info

Track history (hours):
 
Tides and Currents Weather Stations Pressure Air Temp Water Temp Dewpoint Dewpoint Depression Visibility Wind Speed Wind Dir Waves Ship Positions

Tasman

Last reported at 2014-Oct-20 10:32 UTC. Time now 2014-Oct-22 06:32 UTC.
Position N 53°19' W 002°57'.

Length 90 m; draft 4 m.

Type: Ship. MMSI: 23617000.

Date/timePositionNaut miles runAvg speedWind from/ knotsBaromVisibWave heightAir tempDewpointWater temp
2014-Oct-20 10:32N 53°19' W 002°57'2 1.7
2014-Oct-20 09:33N 53°21' W 002°58'5 5.3
2014-Oct-20 08:33N 53°26' W 003°01'8 7.9
2014-Oct-20 07:33N 53°32' W 003°10'6 5.2
2014-Oct-20 06:29N 53°31' W 003°19'  
2014-Oct-16 15:20N 38°13' W 009°43'911.3
2014-Oct-16 14:33N 38°04' W 009°40'1111.4
2014-Oct-16 13:33N 37°53' W 009°37'1111.3
2014-Oct-16 12:33N 37°42' W 009°34'7110.1
2014-Oct-16 05:30N 36°40' W 008°50'1010.7
2014-Oct-16 04:33N 36°37' W 008°38'16010.6
2014-Oct-15 13:23N 36°01' W 005°25'6 6.8
2014-Oct-15 12:33N 36°02' W 005°18'  
2014-Oct-12 20:11N 37°45' E 008°11'711.3
2014-Oct-12 19:32N 37°47' E 008°20'1111.3
2014-Oct-12 18:32N 37°49' E 008°34'1111.4
2014-Oct-12 17:33N 37°52' E 008°48'1111.5
2014-Oct-12 16:33N 37°53' E 009°02'1111.3
2014-Oct-12 15:33N 37°55' E 009°16'1111.0
2014-Oct-12 14:33N 37°57' E 009°30'1111.0
2014-Oct-12 13:33N 37°59' E 009°44'1111.0
2014-Oct-12 12:33N 38°00' E 009°58'14110.8
2014-Oct-11 23:27N 38°24' E 012°55'1010.7
2014-Oct-11 22:33N 38°26' E 013°07'1111.1
2014-Oct-11 21:33N 38°28' E 013°21'1111.3
2014-Oct-11 20:33N 38°27' E 013°35'7911.2
2014-Oct-11 13:30N 38°19' E 015°16'1011.0
2014-Oct-11 12:33N 38°20' E 015°29'17 6.9
2014-Oct-11 10:07N 38°04' E 015°36'  
Track history (hours):
 
Tides and Currents Weather Stations Pressure Air Temp Water Temp Dewpoint Dewpoint Depression Visibility Wind Speed Wind Dir Waves Ship Positions

Tasman

Last reported at 2014-Oct-20 10:32 UTC. Time now 2014-Oct-22 06:32 UTC.
Position N 53°19' W 002°57'.

Length 90 m; draft 4 m.

Type: Ship. MMSI: 23617000.

Date/timePositionNaut miles runAvg speedWind from/ knotsBaromVisibWave heightAir tempDewpointWater temp
2014-Oct-20 10:32N 53°19' W 002°57'2 1.7
2014-Oct-20 09:33N 53°21' W 002°58'5 5.3
2014-Oct-20 08:33N 53°26' W 003°01'8 7.9
2014-Oct-20 07:33N 53°32' W 003°10'6 5.2
2014-Oct-20 06:29N 53°31' W 003°19'  
2014-Oct-16 15:20N 38°13' W 009°43'911.3
2014-Oct-16 14:33N 38°04' W 009°40'1111.4
2014-Oct-16 13:33N 37°53' W 009°37'1111.3
2014-Oct-16 12:33N 37°42' W 009°34'7110.1
2014-Oct-16 05:30N 36°40' W 008°50'1010.7
2014-Oct-16 04:33N 36°37' W 008°38'16010.6
2014-Oct-15 13:23N 36°01' W 005°25'6 6.8
2014-Oct-15 12:33N 36°02' W 005°18'  
2014-Oct-12 20:11N 37°45' E 008°11'711.3
2014-Oct-12 19:32N 37°47' E 008°20'1111.3
2014-Oct-12 18:32N 37°49' E 008°34'1111.4
2014-Oct-12 17:33N 37°52' E 008°48'1111.5
2014-Oct-12 16:33N 37°53' E 009°02'1111.3
2014-Oct-12 15:33N 37°55' E 009°16'1111.0
2014-Oct-12 14:33N 37°57' E 009°30'1111.0
2014-Oct-12 13:33N 37°59' E 009°44'1111.0
2014-Oct-12 12:33N 38°00' E 009°58'14110.8
2014-Oct-11 23:27N 38°24' E 012°55'1010.7
2014-Oct-11 22:33N 38°26' E 013°07'1111.1
2014-Oct-11 21:33N 38°28' E 013°21'1111.3
2014-Oct-11 20:33N 38°27' E 013°35'7911.2
2014-Oct-11 13:30N 38°19' E 015°16'1011.0
2014-Oct-11 12:33N 38°20' E 015°29'17 6.9
2014-Oct-11 10:07N 38°04' E 015°36'  

Dump ship's entire track history